Time;durP1;ratioP1;P1;durP2;ratioP2;P2;SDS_P1;SDS_P2;PMS_P1;PMS_P2;Temp;Humidity;BMP_temperature;BMP_pressure;BME280_temperature;BME280_humidity;BME280_pressure;Samples;Min_cycle;Max_cycle;Signal;HPM_P1;HPM_P2
2024/04/10 00:01:20;;;;;;;12.02;3.97;;;8.80;84.80;;;;;;5303264;26;20758;-79
2024/04/10 00:03:45;;;;;;;18.73;3.95;;;8.80;84.80;;;;;;5317784;26;19993;-76
2024/04/10 00:06:11;;;;;;;17.67;4.25;;;8.80;85.00;;;;;;5325746;26;20279;-77
2024/04/10 00:08:37;;;;;;;19.67;4.50;;;8.80;85.00;;;;;;5313810;26;20016;-76
2024/04/10 00:11:03;;;;;;;11.35;3.78;;;8.70;85.10;;;;;;5322838;26;20005;-77
2024/04/10 00:13:32;;;;;;;14.25;4.40;;;8.70;85.20;;;;;;5325692;26;20011;-78
2024/04/10 00:16:01;;;;;;;14.57;4.15;;;8.70;85.30;;;;;;5328892;26;20001;-78
2024/04/10 00:18:28;;;;;;;16.00;4.55;;;8.70;85.40;;;;;;5326439;26;20004;-76
2024/04/10 00:20:54;;;;;;;19.05;4.97;;;8.70;85.40;;;;;;5322875;26;20001;-78
2024/04/10 00:23:20;;;;;;;13.80;5.00;;;8.70;85.50;;;;;;5331059;26;20734;-77
2024/04/10 00:25:53;;;;;;;14.68;4.35;;;8.70;85.50;;;;;;5313636;26;20071;-78
2024/04/10 00:28:20;;;;;;;12.43;3.70;;;8.60;85.60;;;;;;5285745;26;20016;-77
2024/04/10 00:30:45;;;;;;;12.20;3.58;;;8.60;85.70;;;;;;5312010;26;20053;-75
2024/04/10 00:33:11;;;;;;;14.63;4.50;;;8.60;85.90;;;;;;5325665;26;20005;-76
2024/04/10 00:35:36;;;;;;;11.90;4.00;;;8.60;85.90;;;;;;5328795;26;20016;-79
2024/04/10 00:38:02;;;;;;;14.60;4.20;;;8.60;85.90;;;;;;5326510;26;20014;-75
2024/04/10 00:40:28;;;;;;;10.70;3.75;;;8.60;86.10;;;;;;5316067;26;20001;-79
2024/04/10 00:42:53;;;;;;;14.93;4.38;;;8.60;86.10;;;;;;5326341;26;20334;-77
2024/04/10 00:45:19;;;;;;;10.55;3.80;;;8.60;86.20;;;;;;5307523;26;20084;-79
2024/04/10 00:47:45;;;;;;;14.07;4.10;;;8.60;86.30;;;;;;5326907;26;20020;-77
2024/04/10 00:50:10;;;;;;;13.85;4.53;;;8.50;86.30;;;;;;5325545;26;20008;-76
2024/04/10 00:52:36;;;;;;;15.88;5.22;;;8.50;86.40;;;;;;5293431;26;20104;-80
2024/04/10 00:55:04;;;;;;;19.95;6.00;;;8.50;86.50;;;;;;5291030;26;20012;-83
2024/04/10 00:57:29;;;;;;;18.33;6.13;;;8.40;86.50;;;;;;5292536;26;20270;-77
2024/04/10 00:59:55;;;;;;;23.75;6.40;;;8.40;86.60;;;;;;5285761;26;20761;-75
2024/04/10 01:02:21;;;;;;;16.35;4.70;;;8.40;86.70;;;;;;5328962;26;20008;-78
2024/04/10 01:04:49;;;;;;;18.13;4.57;;;8.50;86.70;;;;;;5330754;26;20792;-75
2024/04/10 01:07:14;;;;;;;13.18;4.60;;;8.50;86.50;;;;;;5319488;26;20008;-75
2024/04/10 01:09:40;;;;;;;16.58;4.90;;;8.40;86.50;;;;;;5313185;26;20082;-76
2024/04/10 01:12:06;;;;;;;14.50;5.28;;;8.40;86.50;;;;;;5316549;26;20011;-77
2024/04/10 01:14:32;;;;;;;15.98;4.15;;;8.40;86.50;;;;;;5325258;26;20004;-78
2024/04/10 01:16:57;;;;;;;15.15;4.75;;;8.40;86.50;;;;;;5329005;26;19997;-78
2024/04/10 01:19:23;;;;;;;12.02;3.63;;;8.40;86.50;;;;;;5323430;26;20000;-75
2024/04/10 01:21:49;;;;;;;14.15;4.28;;;8.40;86.40;;;;;;5325648;26;20001;-77
2024/04/10 01:24:14;;;;;;;17.48;4.78;;;8.50;86.30;;;;;;5324722;26;20012;-75
2024/04/10 01:26:40;;;;;;;16.58;4.20;;;8.40;86.40;;;;;;5328712;26;20036;-80
2024/04/10 01:29:06;;;;;;;19.52;5.15;;;8.30;86.40;;;;;;5330171;26;20773;-75
2024/04/10 01:31:31;;;;;;;14.82;4.55;;;8.30;86.60;;;;;;5325339;26;20441;-76
2024/04/10 01:33:57;;;;;;;15.65;4.50;;;8.30;86.60;;;;;;5323650;26;20369;-77
2024/04/10 01:36:23;;;;;;;15.05;4.55;;;8.30;86.70;;;;;;5327773;26;20008;-75
2024/04/10 01:38:50;;;;;;;19.73;4.63;;;8.20;86.90;;;;;;5319126;26;20021;-79
2024/04/10 01:41:15;;;;;;;14.90;4.05;;;8.20;87.00;;;;;;5308524;26;20215;-75
2024/04/10 01:43:41;;;;;;;13.02;4.00;;;8.20;87.20;;;;;;5288534;26;21496;-75
2024/04/10 01:46:07;;;;;;;13.55;4.45;;;8.20;87.40;;;;;;5286380;26;20453;-79
2024/04/10 01:48:33;;;;;;;19.13;5.20;;;8.10;87.40;;;;;;5281793;26;20014;-75
2024/04/10 01:50:59;;;;;;;15.70;5.10;;;8.10;87.50;;;;;;5291558;26;20083;-79
2024/04/10 01:53:24;;;;;;;14.35;4.63;;;8.10;87.60;;;;;;5330723;26;20101;-77
2024/04/10 01:55:51;;;;;;;19.58;4.75;;;8.10;87.70;;;;;;5324994;26;20001;-75
2024/04/10 01:58:17;;;;;;;13.07;4.05;;;8.10;87.80;;;;;;5322975;26;19997;-78
2024/04/10 02:00:43;;;;;;;10.68;3.58;;;8.10;88.00;;;;;;5311395;26;20011;-76
2024/04/10 02:03:08;;;;;;;15.77;4.00;;;8.10;88.10;;;;;;5327700;26;20457;-77
2024/04/10 02:05:34;;;;;;;15.48;4.85;;;8.10;88.00;;;;;;5327721;26;19993;-79
2024/04/10 02:08:00;;;;;;;16.63;4.38;;;8.10;88.10;;;;;;5323363;26;20103;-76
2024/04/10 02:10:25;;;;;;;16.25;4.82;;;8.10;88.30;;;;;;5324755;26;20008;-75
2024/04/10 02:12:51;;;;;;;14.23;3.63;;;8.10;88.20;;;;;;5307520;26;20016;-75
2024/04/10 02:15:17;;;;;;;12.73;4.25;;;8.10;88.20;;;;;;5314503;26;20733;-75
2024/04/10 02:17:42;;;;;;;16.75;4.45;;;8.10;88.10;;;;;;5308937;26;19998;-78
2024/04/10 02:20:09;;;;;;;14.65;3.65;;;8.10;88.20;;;;;;5302046;26;19997;-76
2024/04/10 02:22:35;;;;;;;15.30;4.00;;;8.10;88.30;;;;;;5298411;26;20006;-78
2024/04/10 02:25:01;;;;;;;17.80;4.18;;;8.10;88.40;;;;;;5294206;26;20393;-79
2024/04/10 02:27:27;;;;;;;15.23;3.92;;;8.10;88.30;;;;;;5293285;26;19998;-75
2024/04/10 02:29:52;;;;;;;14.60;4.57;;;8.10;88.20;;;;;;5286236;26;20033;-75
2024/04/10 02:32:18;;;;;;;15.77;4.43;;;8.10;88.20;;;;;;5326328;26;20037;-76
2024/04/10 02:34:44;;;;;;;12.95;4.20;;;8.00;88.30;;;;;;5329880;26;20012;-82
2024/04/10 02:37:10;;;;;;;16.15;4.65;;;7.90;88.30;;;;;;5319850;26;20696;-81
2024/04/10 02:39:36;;;;;;;16.65;5.47;;;8.00;88.50;;;;;;5315282;26;19998;-78
2024/04/10 02:42:01;;;;;;;14.93;5.43;;;7.90;88.50;;;;;;5322286;26;20020;-75
2024/04/10 02:44:27;;;;;;;19.88;6.18;;;7.90;88.40;;;;;;5310306;26;20002;-74
2024/04/10 02:46:54;;;;;;;17.45;6.88;;;7.90;88.60;;;;;;5317131;26;20016;-75
2024/04/10 02:49:19;;;;;;;16.75;7.07;;;7.80;88.70;;;;;;5321099;26;20564;-75
2024/04/10 02:51:45;;;;;;;15.52;5.78;;;7.80;88.80;;;;;;5328315;26;20438;-77
2024/04/10 02:54:11;;;;;;;16.67;5.70;;;7.80;88.70;;;;;;5326166;26;20067;-75
2024/04/10 02:56:36;;;;;;;15.27;5.28;;;7.80;88.80;;;;;;5321277;26;20120;-81
2024/04/10 02:59:02;;;;;;;21.60;5.32;;;7.70;88.90;;;;;;5314967;26;20187;-77
2024/04/10 03:01:28;;;;;;;17.52;5.40;;;7.70;89.00;;;;;;5322918;26;20054;-75
2024/04/10 03:03:53;;;;;;;15.43;4.68;;;7.70;89.20;;;;;;5320887;26;19997;-76
2024/04/10 03:06:19;;;;;;;18.42;5.28;;;7.70;89.10;;;;;;5315910;26;20034;-76
2024/04/10 03:08:44;;;;;;;14.25;4.63;;;7.70;89.20;;;;;;5326267;26;20066;-79
2024/04/10 03:11:10;;;;;;;14.98;4.22;;;7.70;89.10;;;;;;5336346;26;20822;-77
2024/04/10 03:13:37;;;;;;;17.35;4.03;;;7.70;89.10;;;;;;5329538;26;20001;-76
2024/04/10 03:16:04;;;;;;;16.20;5.03;;;7.60;89.20;;;;;;5306577;26;20057;-76
2024/04/10 03:18:29;;;;;;;14.30;4.88;;;7.60;89.20;;;;;;5297124;26;20021;-77
2024/04/10 03:20:56;;;;;;;15.98;4.05;;;7.60;89.20;;;;;;5295078;26;20013;-75
2024/04/10 03:23:22;;;;;;;13.95;4.28;;;7.70;89.20;;;;;;5275648;26;20053;-77
2024/04/10 03:25:48;;;;;;;13.20;4.32;;;7.70;89.20;;;;;;5280811;26;20701;-75
2024/04/10 03:28:14;;;;;;;19.98;4.78;;;7.60;89.30;;;;;;5278951;26;20048;-77
2024/04/10 03:30:40;;;;;;;17.23;4.50;;;7.60;89.20;;;;;;5301490;26;20077;-76
2024/04/10 03:33:06;;;;;;;15.85;4.28;;;7.60;89.20;;;;;;5331309;26;20004;-74
2024/04/10 03:35:32;;;;;;;18.08;4.18;;;7.60;89.10;;;;;;5321790;26;20024;-78
2024/04/10 03:37:58;;;;;;;14.82;3.78;;;7.60;89.00;;;;;;5329263;26;20011;-77
2024/04/10 03:40:23;;;;;;;16.88;3.78;;;7.60;89.00;;;;;;5320868;26;20005;-77
2024/04/10 03:42:49;;;;;;;17.23;3.58;;;7.60;89.00;;;;;;5330900;26;20112;-75
2024/04/10 03:45:15;;;;;;;16.25;3.78;;;7.50;89.10;;;;;;5329950;26;20009;-79
2024/04/10 03:47:41;;;;;;;16.60;3.90;;;7.50;89.20;;;;;;5322095;26;19997;-79
2024/04/10 03:50:08;;;;;;;14.18;3.75;;;7.50;89.30;;;;;;5326528;26;20152;-80
2024/04/10 03:52:33;;;;;;;16.25;4.43;;;7.50;89.40;;;;;;5328641;26;20012;-75
2024/04/10 03:54:59;;;;;;;18.90;4.53;;;7.40;89.50;;;;;;5325600;26;20025;-75
2024/04/10 03:57:25;;;;;;;14.57;4.85;;;7.50;89.60;;;;;;5319922;26;19997;-75
2024/04/10 03:59:51;;;;;;;16.60;4.82;;;7.50;89.50;;;;;;5325883;26;20033;-77
2024/04/10 04:02:17;;;;;;;17.67;4.38;;;7.40;89.50;;;;;;5323590;26;20001;-77
2024/04/10 04:04:43;;;;;;;17.17;5.13;;;7.50;89.50;;;;;;5330535;26;20012;-77
2024/04/10 04:07:10;;;;;;;15.60;4.55;;;7.40;89.40;;;;;;5327397;26;20001;-83
2024/04/10 04:09:36;;;;;;;17.83;5.53;;;7.40;89.60;;;;;;5327808;26;20009;-78
2024/04/10 04:12:02;;;;;;;14.43;4.50;;;7.50;89.50;;;;;;5285919;26;21038;-76
2024/04/10 04:14:27;;;;;;;16.30;4.40;;;7.50;89.40;;;;;;5294065;26;20002;-75
2024/04/10 04:16:53;;;;;;;15.35;5.22;;;7.40;89.40;;;;;;5288331;26;20025;-75
2024/04/10 04:19:19;;;;;;;14.45;4.93;;;7.40;89.60;;;;;;5280948;26;20041;-77
2024/04/10 04:21:45;;;;;;;19.50;4.65;;;7.30;89.60;;;;;;5279989;26;19997;-76
2024/04/10 04:24:11;;;;;;;17.75;5.03;;;7.20;89.70;;;;;;5282216;26;20002;-75
2024/04/10 04:26:37;;;;;;;16.45;5.25;;;7.30;89.70;;;;;;5279641;26;20013;-79
2024/04/10 04:29:02;;;;;;;24.90;5.93;;;7.20;89.80;;;;;;5293908;26;20046;-75
2024/04/10 04:31:28;;;;;;;15.30;6.80;;;7.20;89.80;;;;;;5284024;26;20029;-75
2024/04/10 04:33:55;;;;;;;20.60;8.93;;;7.20;89.90;;;;;;5283762;26;20358;-77
2024/04/10 04:36:20;;;;;;;25.88;13.50;;;7.20;89.90;;;;;;5301916;26;20005;-75
2024/04/10 04:38:46;;;;;;;26.15;16.25;;;7.10;90.00;;;;;;5332118;26;20025;-81
2024/04/10 04:41:12;;;;;;;33.33;18.00;;;7.10;90.00;;;;;;5312073;26;20053;-78
2024/04/10 04:43:38;;;;;;;28.33;18.42;;;7.10;90.10;;;;;;5283143;26;20463;-80
2024/04/10 04:46:07;;;;;;;31.30;19.00;;;7.10;90.10;;;;;;5302029;26;20001;-77
2024/04/10 04:48:33;;;;;;;27.30;17.25;;;7.10;90.00;;;;;;5325515;26;20476;-74
2024/04/10 04:50:59;;;;;;;25.70;13.20;;;7.10;90.00;;;;;;5327434;26;20043;-75
2024/04/10 04:53:25;;;;;;;23.55;10.38;;;7.10;90.10;;;;;;5330070;26;20033;-76
2024/04/10 04:55:50;;;;;;;15.10;7.53;;;7.10;90.20;;;;;;5309586;26;20492;-76
2024/04/10 04:58:16;;;;;;;23.50;7.88;;;7.00;90.20;;;;;;5289844;27;20492;-78
2024/04/10 05:00:42;;;;;;;16.30;6.80;;;7.00;90.30;;;;;;5301555;26;20041;-76
2024/04/10 05:03:13;;;;;;;15.55;5.85;;;7.00;90.30;;;;;;5322038;26;20052;-77
2024/04/10 05:05:39;;;;;;;19.73;6.05;;;7.00;90.40;;;;;;5315949;26;20500;-81
2024/04/10 05:08:05;;;;;;;14.60;5.13;;;7.00;90.50;;;;;;5326097;26;20113;-77
2024/04/10 05:10:31;;;;;;;17.45;4.95;;;7.00;90.50;;;;;;5326862;26;20503;-76
2024/04/10 05:12:57;;;;;;;19.63;4.80;;;7.00;90.50;;;;;;5327248;26;20015;-77
2024/04/10 05:15:22;;;;;;;15.50;3.97;;;7.10;90.30;;;;;;5312519;26;20729;-76
2024/04/10 05:17:49;;;;;;;15.30;4.32;;;7.10;90.30;;;;;;5303477;26;21553;-76
2024/04/10 05:20:15;;;;;;;13.55;4.28;;;7.10;90.20;;;;;;5305504;26;20072;-78
2024/04/10 05:22:42;;;;;;;15.35;4.40;;;7.20;90.20;;;;;;5302819;26;20014;-75
2024/04/10 05:25:10;;;;;;;14.43;4.80;;;7.20;90.00;;;;;;5315200;26;20395;-76
2024/04/10 05:27:37;;;;;;;13.43;4.57;;;7.20;89.90;;;;;;5310722;26;20545;-77
2024/04/10 05:30:07;;;;;;;14.70;4.75;;;7.30;89.90;;;;;;5326308;26;20005;-76
2024/04/10 05:32:39;;;;;;;17.90;4.75;;;7.30;89.80;;;;;;5312148;26;20009;-77
2024/04/10 05:35:10;;;;;;;12.20;4.22;;;7.30;89.70;;;;;;5299070;26;20469;-79
2024/04/10 05:37:36;;;;;;;20.33;5.65;;;7.40;89.70;;;;;;5317730;26;20016;-83
2024/04/10 05:40:09;;;;;;;13.38;4.57;;;7.40;89.60;;;;;;5318282;26;19994;-77
2024/04/10 05:44:04;;;;;;;18.23;4.20;;;7.40;89.60;;;;;;5467826;25;20427;-78
2024/04/10 05:46:31;;;;;;;20.83;4.18;;;7.40;89.50;;;;;;5367736;26;20120;-76
2024/04/10 05:48:57;;;;;;;14.25;4.78;;;7.40;89.40;;;;;;5321856;26;20008;-78
2024/04/10 05:51:22;;;;;;;15.15;4.20;;;7.40;89.50;;;;;;5314467;26;20033;-79
2024/04/10 05:53:48;;;;;;;15.10;4.22;;;7.50;89.40;;;;;;5319914;26;19997;-79
2024/04/10 05:56:15;;;;;;;17.63;4.82;;;7.50;89.40;;;;;;5336905;26;20026;-76
2024/04/10 05:58:40;;;;;;;16.45;4.75;;;7.50;89.40;;;;;;5380061;26;20026;-75
2024/04/10 06:01:07;;;;;;;16.35;4.03;;;7.60;89.30;;;;;;5343769;26;21547;-77
2024/04/10 06:03:33;;;;;;;13.80;4.78;;;7.60;89.20;;;;;;5346362;26;20008;-77
2024/04/10 06:06:09;;;;;;;14.15;4.95;;;7.60;89.20;;;;;;5347987;26;20001;-78
2024/04/10 06:08:35;;;;;;;16.73;4.90;;;7.60;89.10;;;;;;5348485;26;20024;-76
2024/04/10 06:11:00;;;;;;;15.40;4.60;;;7.70;89.20;;;;;;5332883;26;20462;-77
2024/04/10 06:13:26;;;;;;;15.38;4.60;;;7.80;89.20;;;;;;5316987;26;20032;-81
2024/04/10 06:16:02;;;;;;;18.23;4.53;;;7.80;89.10;;;;;;5316634;26;20075;-75
2024/04/10 06:18:28;;;;;;;16.77;4.93;;;7.90;88.90;;;;;;5348341;26;20015;-80
2024/04/10 06:21:00;;;;;;;12.68;4.45;;;7.90;88.90;;;;;;5352456;26;20004;-82
2024/04/10 06:23:31;;;;;;;17.08;6.00;;;8.00;89.00;;;;;;5347304;26;20661;-76
2024/04/10 06:25:57;;;;;;;14.75;4.63;;;8.10;88.90;;;;;;5345142;26;20812;-76
2024/04/10 06:28:25;;;;;;;18.75;5.25;;;8.10;88.90;;;;;;5343673;26;20005;-77
2024/04/10 06:31:01;;;;;;;16.17;5.32;;;8.20;88.80;;;;;;5350998;26;20000;-78
2024/04/10 06:33:27;;;;;;;17.75;5.10;;;8.30;88.40;;;;;;5348522;26;20007;-79
2024/04/10 06:35:53;;;;;;;15.90;5.28;;;8.30;88.40;;;;;;5342040;26;20169;-78
2024/04/10 06:38:19;;;;;;;16.55;5.78;;;8.40;88.20;;;;;;5346539;26;20624;-77
2024/04/10 06:40:59;;;;;;;18.50;5.82;;;8.40;88.20;;;;;;5331636;26;20012;-76
2024/04/10 06:43:25;;;;;;;13.88;5.30;;;8.50;87.90;;;;;;5309757;26;20470;-77
2024/04/10 06:46:05;;;;;;;16.63;5.22;;;8.60;87.90;;;;;;5308198;26;20029;-76
2024/04/10 06:48:31;;;;;;;20.38;6.25;;;8.70;87.80;;;;;;5304832;26;20012;-83
2024/04/10 06:51:02;;;;;;;20.10;6.30;;;8.70;87.40;;;;;;5310646;26;20001;-76
2024/04/10 06:53:28;;;;;;;19.23;5.85;;;8.90;87.30;;;;;;5310162;26;20006;-83
2024/04/10 06:56:00;;;;;;;16.02;5.53;;;8.90;87.10;;;;;;5295686;26;20006;-76
2024/04/10 06:58:28;;;;;;;16.45;5.32;;;9.00;87.10;;;;;;5290717;26;20010;-78
2024/04/10 07:01:03;;;;;;;17.75;5.85;;;9.10;87.00;;;;;;5295149;26;19998;-80
2024/04/10 07:03:31;;;;;;;16.05;5.70;;;9.30;86.40;;;;;;5299930;26;20017;-83
2024/04/10 07:06:06;;;;;;;20.58;5.88;;;9.40;86.40;;;;;;5298483;26;20532;-79
2024/04/10 07:08:33;;;;;;;21.88;5.25;;;9.60;86.10;;;;;;5299120;26;20020;-78
2024/04/10 07:10:59;;;;;;;16.05;5.28;;;9.80;85.40;;;;;;5293875;26;20002;-82
2024/04/10 07:13:25;;;;;;;17.83;5.10;;;10.00;84.80;;;;;;5301005;26;20017;-81
2024/04/10 07:16:02;;;;;;;15.38;4.82;;;10.20;84.10;;;;;;5289173;26;20006;-76
2024/04/10 07:18:28;;;;;;;18.35;5.90;;;10.40;83.00;;;;;;5297156;26;20104;-76
2024/04/10 07:20:58;;;;;;;19.13;5.50;;;10.60;82.80;;;;;;5294971;26;20008;-80
2024/04/10 07:23:23;;;;;;;16.20;5.93;;;10.70;82.20;;;;;;5303398;26;20005;-80
2024/04/10 07:25:49;;;;;;;19.15;5.45;;;10.80;81.80;;;;;;5286844;26;20013;-76
2024/04/10 07:28:14;;;;;;;14.75;5.28;;;11.00;81.20;;;;;;5286745;26;20084;-80
2024/04/10 07:30:40;;;;;;;18.67;5.07;;;11.20;81.20;;;;;;5294855;26;20049;-81
2024/04/10 07:33:06;;;;;;;19.67;5.82;;;11.30;81.00;;;;;;5297511;26;20358;-76
2024/04/10 07:35:32;;;;;;;19.33;6.10;;;11.50;80.50;;;;;;5297159;26;20057;-80
2024/04/10 07:37:58;;;;;;;14.60;5.15;;;11.50;80.10;;;;;;5296004;27;20020;-77
2024/04/10 07:40:23;;;;;;;14.48;5.00;;;11.50;80.30;;;;;;5294897;26;20016;-78
2024/04/10 07:42:49;;;;;;;13.45;4.38;;;11.70;79.70;;;;;;5299209;26;19998;-77
2024/04/10 07:45:15;;;;;;;14.98;4.00;;;11.90;78.80;;;;;;5289873;26;20006;-77
2024/04/10 07:47:42;;;;;;;15.63;4.55;;;12.10;77.80;;;;;;5298800;26;20455;-81
2024/04/10 07:50:08;;;;;;;16.13;4.45;;;12.10;77.00;;;;;;5294509;26;20017;-76
2024/04/10 07:52:34;;;;;;;16.08;4.10;;;12.30;77.20;;;;;;5293362;26;20020;-76
2024/04/10 07:54:59;;;;;;;21.73;4.72;;;12.30;77.40;;;;;;5294122;26;20948;-78
2024/04/10 07:57:25;;;;;;;17.65;4.20;;;12.40;77.30;;;;;;5294179;26;20002;-79
2024/04/10 07:59:51;;;;;;;12.20;3.80;;;12.50;77.40;;;;;;5296152;26;20020;-80
2024/04/10 08:02:18;;;;;;;13.13;4.43;;;12.70;76.10;;;;;;5294919;26;20798;-78
2024/04/10 08:04:44;;;;;;;15.07;3.75;;;12.90;76.20;;;;;;5295627;26;20005;-77
2024/04/10 08:07:10;;;;;;;13.80;4.07;;;12.90;75.10;;;;;;5292166;26;20008;-81
2024/04/10 08:09:37;;;;;;;12.82;3.38;;;13.10;75.40;;;;;;5295943;26;20645;-76
2024/04/10 08:12:03;;;;;;;13.52;4.13;;;13.20;73.50;;;;;;5294347;26;19998;-77
2024/04/10 08:14:29;;;;;;;11.80;4.35;;;13.40;73.30;;;;;;5297358;26;20010;-77
2024/04/10 08:16:55;;;;;;;15.93;4.10;;;13.50;71.80;;;;;;5293257;26;20024;-81
2024/04/10 08:19:20;;;;;;;14.50;4.63;;;13.60;72.30;;;;;;5296594;26;20564;-81
2024/04/10 08:21:46;;;;;;;16.55;4.47;;;13.80;72.50;;;;;;5298897;26;20002;-76
2024/04/10 08:24:12;;;;;;;16.08;4.10;;;14.00;69.90;;;;;;5300363;26;20038;-76
2024/04/10 08:26:38;;;;;;;12.35;3.25;;;14.00;70.80;;;;;;5299937;26;20001;-83
2024/04/10 08:29:03;;;;;;;15.95;4.45;;;14.20;69.70;;;;;;5297916;26;20049;-79
2024/04/10 08:31:30;;;;;;;12.88;3.22;;;14.50;68.90;;;;;;5277311;26;20085;-76
2024/04/10 08:33:55;;;;;;;12.80;3.13;;;14.60;67.00;;;;;;5295097;26;20079;-77
2024/04/10 08:36:22;;;;;;;14.98;3.60;;;14.70;66.80;;;;;;5288891;26;20014;-77
2024/04/10 08:38:48;;;;;;;8.48;2.72;;;15.00;64.80;;;;;;5286942;26;20016;-79
2024/04/10 08:41:16;;;;;;;9.27;3.22;;;15.00;64.80;;;;;;5290028;26;20016;-77
2024/04/10 08:43:43;;;;;;;11.68;3.22;;;14.80;64.10;;;;;;5287321;26;20822;-82
2024/04/10 08:46:10;;;;;;;15.45;3.72;;;14.80;64.60;;;;;;5302533;26;20074;-81
2024/04/10 08:48:38;;;;;;;9.65;3.50;;;14.90;65.60;;;;;;5329446;26;20760;-79
2024/04/10 08:51:09;;;;;;;10.80;3.10;;;14.90;64.10;;;;;;5324038;26;19997;-78
2024/04/10 08:53:38;;;;;;;10.40;2.50;;;15.10;62.50;;;;;;5318784;26;20846;-77
2024/04/10 08:56:04;;;;;;;11.30;2.78;;;15.30;61.90;;;;;;5338337;26;20077;-78
2024/04/10 08:58:30;;;;;;;11.00;2.75;;;15.30;62.60;;;;;;5331577;26;20004;-79
2024/04/10 09:00:55;;;;;;;10.60;2.42;;;15.30;60.10;;;;;;5328321;26;20769;-78
2024/04/10 09:03:21;;;;;;;7.45;2.50;;;15.40;60.30;;;;;;5328037;26;20766;-79
2024/04/10 09:05:46;;;;;;;9.05;2.58;;;15.40;60.30;;;;;;5327303;26;20357;-75
2024/04/10 09:08:12;;;;;;;9.25;2.40;;;15.80;59.50;;;;;;5314638;26;20033;-82
2024/04/10 09:10:38;;;;;;;8.15;2.47;;;15.90;56.60;;;;;;5321697;26;20096;-78
2024/04/10 09:13:09;;;;;;;9.35;2.58;;;16.10;57.80;;;;;;5272619;26;20002;-78
2024/04/10 09:15:38;;;;;;;9.60;2.28;;;16.10;56.20;;;;;;5287488;26;20001;-81
2024/04/10 09:18:06;;;;;;;7.72;2.20;;;16.10;56.00;;;;;;5296030;26;19998;-81
2024/04/10 09:20:32;;;;;;;11.63;2.63;;;16.30;55.70;;;;;;5291723;26;20006;-77
2024/04/10 09:23:06;;;;;;;10.43;2.50;;;16.20;55.10;;;;;;5291124;26;20005;-82
2024/04/10 09:25:33;;;;;;;11.32;2.20;;;16.30;55.00;;;;;;5287505;26;19997;-76
2024/04/10 09:28:03;;;;;;;10.07;1.92;;;16.30;54.50;;;;;;5291171;26;20704;-75
2024/04/10 09:30:34;;;;;;;7.60;2.00;;;16.30;54.30;;;;;;5287591;26;20411;-74
2024/04/10 09:33:00;;;;;;;9.93;2.33;;;16.60;52.90;;;;;;5289244;26;20017;-79
2024/04/10 09:35:27;;;;;;;8.80;2.30;;;16.70;52.20;;;;;;5289355;26;20081;-73
2024/04/10 09:38:00;;;;;;;8.00;1.85;;;16.70;51.70;;;;;;5292045;26;20002;-76
2024/04/10 09:40:27;;;;;;;7.43;2.22;;;16.20;53.10;;;;;;5288780;26;20001;-74
2024/04/10 09:43:01;;;;;;;8.32;1.98;;;16.40;52.10;;;;;;5293909;26;20005;-75
2024/04/10 09:45:27;;;;;;;9.27;2.22;;;16.50;53.50;;;;;;5298200;26;20005;-75
2024/04/10 09:47:56;;;;;;;7.72;2.40;;;16.50;53.40;;;;;;5292888;26;20540;-75
2024/04/10 09:50:28;;;;;;;7.43;1.95;;;16.60;53.80;;;;;;5289518;26;20002;-78
2024/04/10 09:52:55;;;;;;;6.85;2.00;;;16.10;51.40;;;;;;5293556;26;20127;-75
2024/04/10 09:55:20;;;;;;;7.75;1.70;;;16.20;52.60;;;;;;5295685;26;20462;-76
2024/04/10 09:57:47;;;;;;;7.47;1.90;;;16.60;52.10;;;;;;5289216;27;20001;-79
2024/04/10 10:00:12;;;;;;;6.68;1.63;;;16.70;50.90;;;;;;5292618;27;20010;-78
2024/04/10 10:02:38;;;;;;;6.82;1.80;;;16.60;49.60;;;;;;5290673;26;20001;-78
2024/04/10 10:05:05;;;;;;;8.05;1.98;;;16.80;49.10;;;;;;5293387;26;20062;-77
2024/04/10 10:07:32;;;;;;;5.20;1.70;;;16.90;48.80;;;;;;5292283;26;20016;-74
2024/04/10 10:10:05;;;;;;;7.15;1.73;;;17.10;49.00;;;;;;5299989;26;20002;-75
2024/04/10 10:12:31;;;;;;;6.35;1.80;;;17.00;49.10;;;;;;5290870;26;20020;-78
2024/04/10 10:15:10;;;;;;;5.90;1.50;;;16.80;49.50;;;;;;5292069;27;20013;-75
2024/04/10 10:17:37;;;;;;;9.63;2.35;;;16.40;49.60;;;;;;5290201;26;20173;-75
2024/04/10 10:20:03;;;;;;;8.40;2.13;;;16.10;51.20;;;;;;5286089;26;20840;-76
2024/04/10 10:22:29;;;;;;;8.35;1.98;;;15.80;52.00;;;;;;5288234;26;20006;-78
2024/04/10 10:24:58;;;;;;;9.30;1.77;;;16.10;51.10;;;;;;5290181;26;20049;-74
2024/04/10 10:27:25;;;;;;;6.90;1.90;;;16.10;50.90;;;;;;5293184;26;20030;-76
2024/04/10 10:30:01;;;;;;;5.30;1.48;;;15.60;51.60;;;;;;5293689;26;20025;-78
2024/04/10 10:32:27;;;;;;;4.78;1.60;;;15.50;51.70;;;;;;5294225;26;20009;-76
2024/04/10 10:34:52;;;;;;;7.63;1.70;;;15.90;49.70;;;;;;5293708;26;20013;-76
2024/04/10 10:37:19;;;;;;;8.00;2.00;;;16.30;50.70;;;;;;5292307;26;20002;-79
2024/04/10 10:39:44;;;;;;;6.85;1.92;;;16.70;50.50;;;;;;5296453;27;20005;-76
2024/04/10 10:42:10;;;;;;;7.63;1.80;;;17.00;49.20;;;;;;5288059;27;19997;-76
2024/04/10 10:44:36;;;;;;;9.00;1.92;;;17.10;48.80;;;;;;5287871;27;20001;-76
2024/04/10 10:47:07;;;;;;;6.82;1.60;;;17.20;47.60;;;;;;5299277;26;20005;-74
2024/04/10 10:49:32;;;;;;;5.72;1.90;;;17.50;49.30;;;;;;5294446;26;20002;-74
2024/04/10 10:51:58;;;;;;;7.60;2.00;;;17.20;48.50;;;;;;5293942;26;20387;-78
2024/04/10 10:54:24;;;;;;;6.90;1.65;;;17.50;47.90;;;;;;5295512;26;20159;-75
2024/04/10 10:56:50;;;;;;;7.13;2.13;;;17.70;47.80;;;;;;5296700;26;21453;-75
2024/04/10 10:59:16;;;;;;;9.02;1.90;;;17.20;48.90;;;;;;5292716;26;20579;-75
2024/04/10 11:01:42;;;;;;;6.15;1.92;;;16.70;50.20;;;;;;5290159;26;20071;-74
2024/04/10 11:04:14;;;;;;;11.38;2.30;;;16.90;50.30;;;;;;5295774;27;21065;-78
2024/04/10 11:06:40;;;;;;;9.07;2.35;;;17.30;51.10;;;;;;5287173;26;20144;-77
2024/04/10 11:09:17;;;;;;;7.78;1.73;;;16.70;49.80;;;;;;5296070;26;20004;-75
2024/04/10 11:11:44;;;;;;;12.15;2.00;;;17.10;49.30;;;;;;5298322;26;19997;-76
2024/04/10 11:14:13;;;;;;;6.15;1.60;;;17.40;48.60;;;;;;5303025;26;20021;-77
2024/04/10 11:16:42;;;;;;;5.75;1.90;;;17.50;49.10;;;;;;5304729;26;20008;-80
2024/04/10 11:19:08;;;;;;;6.43;1.88;;;17.60;48.30;;;;;;5294662;26;20005;-77
2024/04/10 11:21:34;;;;;;;8.05;1.80;;;16.90;50.30;;;;;;5294586;26;20005;-81
2024/04/10 11:24:00;;;;;;;6.22;2.13;;;17.40;50.30;;;;;;5308418;26;20016;-79
2024/04/10 11:26:26;;;;;;;6.50;2.35;;;17.80;49.90;;;;;;5296839;26;20009;-75
2024/04/10 11:28:56;;;;;;;11.93;2.03;;;17.80;46.80;;;;;;5332903;26;20764;-77
2024/04/10 11:31:22;;;;;;;6.10;1.70;;;17.60;48.70;;;;;;5305450;26;20009;-77
2024/04/10 11:33:47;;;;;;;16.67;3.63;;;18.10;49.30;;;;;;5300569;26;20592;-78
2024/04/10 11:36:14;;;;;;;8.68;2.38;;;18.30;48.90;;;;;;5313394;26;20000;-77
2024/04/10 11:38:42;;;;;;;9.95;2.13;;;17.90;48.30;;;;;;5307890;26;19993;-77
2024/04/10 11:41:09;;;;;;;7.38;2.03;;;17.90;48.80;;;;;;5308061;26;20553;-76
2024/04/10 11:43:35;;;;;;;7.95;2.40;;;17.00;49.90;;;;;;5303979;26;20063;-77
2024/04/10 11:46:02;;;;;;;7.82;2.10;;;16.90;49.50;;;;;;5307617;26;19994;-76
2024/04/10 11:48:28;;;;;;;6.22;1.60;;;16.40;51.60;;;;;;5307596;26;20080;-76
2024/04/10 11:50:56;;;;;;;8.65;1.83;;;16.40;50.90;;;;;;5302637;26;20044;-75
2024/04/10 11:53:22;;;;;;;8.10;1.75;;;16.50;51.00;;;;;;5324778;26;20609;-76
2024/04/10 11:55:48;;;;;;;9.57;2.05;;;16.50;50.80;;;;;;5312550;26;20125;-78
2024/04/10 11:58:14;;;;;;;9.00;1.90;;;16.20;52.20;;;;;;5287657;26;20046;-77
2024/04/10 12:00:40;;;;;;;8.20;2.50;;;16.20;54.00;;;;;;5290157;26;20369;-75
2024/04/10 12:03:05;;;;;;;11.35;2.20;;;16.50;53.20;;;;;;5288913;26;20364;-80
2024/04/10 12:05:31;;;;;;;10.48;2.20;;;16.60;52.40;;;;;;5296603;26;20436;-75
2024/04/10 12:07:57;;;;;;;11.05;2.20;;;16.40;52.80;;;;;;5283267;26;20003;-75
2024/04/10 12:10:23;;;;;;;13.20;2.33;;;16.90;52.60;;;;;;5276956;26;20374;-74
2024/04/10 12:12:49;;;;;;;10.98;2.25;;;17.10;51.00;;;;;;5288808;26;20002;-78
2024/04/10 12:15:14;;;;;;;6.55;2.08;;;16.80;51.80;;;;;;5289692;26;20438;-78
2024/04/10 12:17:40;;;;;;;8.68;2.00;;;16.60;51.90;;;;;;5291865;26;19998;-74
2024/04/10 12:20:06;;;;;;;8.48;1.77;;;16.20;51.40;;;;;;5290986;26;20005;-75
2024/04/10 12:22:32;;;;;;;7.75;2.28;;;16.40;52.20;;;;;;5286258;26;20033;-77
2024/04/10 12:24:58;;;;;;;11.25;2.20;;;16.90;52.80;;;;;;5284827;26;20132;-78
2024/04/10 12:27:23;;;;;;;6.55;2.42;;;16.60;52.20;;;;;;5288275;26;20006;-76
2024/04/10 12:29:49;;;;;;;8.80;2.30;;;16.40;52.70;;;;;;5274034;26;20003;-77
2024/04/10 12:32:14;;;;;;;8.38;2.45;;;16.60;52.60;;;;;;5289347;26;20459;-76
2024/04/10 12:34:40;;;;;;;12.25;2.58;;;16.80;52.40;;;;;;5276952;26;19994;-79
2024/04/10 12:39:50;;;;;;;11.70;2.20;;;16.90;50.50;;;;;;5321305;26;20115;-78
2024/04/10 12:42:16;;;;;;;6.13;1.75;;;16.90;51.30;;;;;;5301460;26;20001;-75
2024/04/10 12:44:42;;;;;;;9.82;2.58;;;16.60;51.90;;;;;;5286443;26;20017;-79
2024/04/10 12:47:08;;;;;;;9.30;2.38;;;17.00;50.90;;;;;;5305828;26;19996;-76